Time;durP1;ratioP1;P1;durP2;ratioP2;P2;SDS_P1;SDS_P2;PMS_P1;PMS_P2;Temp;Humidity;BMP_temperature;BMP_pressure;BME280_temperature;BME280_humidity;BME280_pressure;Samples;Min_cycle;Max_cycle;Signal;HPM_P1;HPM_P2
2023/10/24 00:01:57;;;;;;;;;;;;;;;;;;5027299;28;19920;-65
2023/10/24 00:04:23;;;;;;;;;;;;;;;;;;5012498;28;19917;-66
2023/10/24 00:06:51;;;;;;;;;;;;;;;;;;5024158;28;19930;-65
2023/10/24 00:09:16;;;;;;;;;;;;;;;;;;5041185;28;19921;-64
2023/10/24 00:11:42;;;;;;;;;;;;;;;;;;5022369;28;19917;-67
2023/10/24 00:14:07;;;;;;;;;;;;;;;;;;5005563;28;19920;-65
2023/10/24 00:16:32;;;;;;;;;;;;;;;;;;5023964;28;19924;-68
2023/10/24 00:19:00;;;;;;;;;;;;;;;;;;5023267;28;19920;-67
2023/10/24 00:21:26;;;;;;;;;;;;;;;;;;5012413;28;19931;-65
2023/10/24 00:23:53;;;;;;;;;;;;;;;;;;5022809;28;20391;-66
2023/10/24 00:26:19;;;;;;;;;;;;;;;;;;5010320;28;19987;-67
2023/10/24 00:28:44;;;;;;;;;;;;;;;;;;5022332;28;19921;-66
2023/10/24 00:31:12;;;;;;;;;;;;;;;;;;5026620;28;19921;-63
2023/10/24 00:33:39;;;;;;;;;;;;;;;;;;5025368;28;20007;-66
2023/10/24 00:36:05;;;;;;;;;;;;;;;;;;5026790;28;19923;-64
2023/10/24 00:38:31;;;;;;;;;;;;;;;;;;5020811;28;19968;-66
2023/10/24 00:41:03;;;;;;;;;;;;;;;;;;5024577;28;20311;-66
2023/10/24 00:43:28;;;;;;;;;;;;;;;;;;5023895;28;19921;-65
2023/10/24 00:45:53;;;;;;;;;;;;;;;;;;5024564;28;20514;-66
2023/10/24 00:48:21;;;;;;;;;;;;;;;;;;5020139;28;19920;-63
2023/10/24 00:50:46;;;;;;;;;;;;;;;;;;5024447;28;20299;-64
2023/10/24 00:53:11;;;;;;;;;;;;;;;;;;5021533;28;20392;-65
2023/10/24 00:55:39;;;;;;;;;;;;;;;;;;5030948;28;19927;-63
2023/10/24 00:58:07;;;;;;;;;;;;;;;;;;5021476;28;19921;-65
2023/10/24 01:00:32;;;;;;;;;;;;;;;;;;5024762;28;19913;-67
2023/10/24 01:03:00;;;;;;;;;;;;;;;;;;5038639;28;20039;-65
2023/10/24 01:05:25;;;;;;;;;;;;;;;;;;5010934;28;20033;-64
2023/10/24 01:07:51;;;;;;;;;;;;;;;;;;5023756;28;19921;-64
2023/10/24 01:10:16;;;;;;;;;;;;;;;;;;5025386;28;19932;-66
2023/10/24 01:12:44;;;;;;;;;;;;;;;;;;5008575;28;20971;-64
2023/10/24 01:15:09;;;;;;;;;;;;;;;;;;5025754;28;19924;-66
2023/10/24 01:17:34;;;;;;;;;;;;;;;;;;5024220;28;20419;-67
2023/10/24 01:20:02;;;;;;;;;;;;;;;;;;5022880;28;20357;-65
2023/10/24 01:22:28;;;;;;;;;;;;;;;;;;5008515;28;19921;-67
2023/10/24 01:24:53;;;;;;;;;;;;;;;;;;5024624;28;19978;-65
2023/10/24 01:27:18;;;;;;;;;;;;;;;;;;5021610;28;19932;-66
2023/10/24 01:29:44;;;;;;;;;;;;;;;;;;5020037;28;19960;-65
2023/10/24 01:32:09;;;;;;;;;;;;;;;;;;5013472;28;19963;-65
2023/10/24 01:34:34;;;;;;;;;;;;;;;;;;5023417;28;20077;-65
2023/10/24 01:37:00;;;;;;;;;;;;;;;;;;5024916;28;20000;-66
2023/10/24 01:39:25;;;;;;;;;;;;;;;;;;5026015;28;19952;-66
2023/10/24 01:41:51;;;;;;;;;;;;;;;;;;5011143;28;19975;-65
2023/10/24 01:44:17;;;;;;;;;;;;;;;;;;5012176;28;19921;-66
2023/10/24 01:46:42;;;;;;;;;;;;;;;;;;5025054;28;20390;-65
2023/10/24 01:49:08;;;;;;;;;;;;;;;;;;5025301;28;19925;-66
2023/10/24 01:51:35;;;;;;;;;;;;;;;;;;5030029;28;19923;-66
2023/10/24 01:54:03;;;;;;;;;;;;;;;;;;5023589;28;20354;-66
2023/10/24 01:56:28;;;;;;;;;;;;;;;;;;5020218;28;19994;-66
2023/10/24 01:58:53;;;;;;;;;;;;;;;;;;5022866;28;20012;-66
2023/10/24 02:01:19;;;;;;;;;;;;;;;;;;5029212;28;19916;-65
2023/10/24 02:03:44;;;;;;;;;;;;;;;;;;5028940;28;20549;-65
2023/10/24 02:06:12;;;;;;;;;;;;;;;;;;5026993;28;19927;-65
2023/10/24 02:08:37;;;;;;;;;;;;;;;;;;5029058;28;19920;-66
2023/10/24 02:11:05;;;;;;;;;;;;;;;;;;5033008;28;20597;-65
2023/10/24 02:13:30;;;;;;;;;;;;;;;;;;5026536;28;20523;-65
2023/10/24 02:15:56;;;;;;;;;;;;;;;;;;5027614;28;20895;-66
2023/10/24 02:18:21;;;;;;;;;;;;;;;;;;5026886;28;19917;-66
2023/10/24 02:20:47;;;;;;;;;;;;;;;;;;5027956;28;19964;-66
2023/10/24 02:23:14;;;;;;;;;;;;;;;;;;5027035;28;20300;-66
2023/10/24 02:25:42;;;;;;;;;;;;;;;;;;5028040;28;19921;-66
2023/10/24 02:28:10;;;;;;;;;;;;;;;;;;5027083;28;19917;-65
2023/10/24 02:30:35;;;;;;;;;;;;;;;;;;5025340;28;19974;-67
2023/10/24 02:33:01;;;;;;;;;;;;;;;;;;5027983;28;20178;-67
2023/10/24 02:35:31;;;;;;;;;;;;;;;;;;5026817;28;19971;-66
2023/10/24 02:37:56;;;;;;;;;;;;;;;;;;5014869;28;20054;-66
2023/10/24 02:40:22;;;;;;;;;;;;;;;;;;5015726;28;19920;-66
2023/10/24 02:42:47;;;;;;;;;;;;;;;;;;5027754;28;19994;-66
2023/10/24 02:45:12;;;;;;;;;;;;;;;;;;5021910;28;20487;-65
2023/10/24 02:47:40;;;;;;;;;;;;;;;;;;5028832;28;20330;-65
2023/10/24 02:50:08;;;;;;;;;;;;;;;;;;5029220;28;19925;-65
2023/10/24 02:52:33;;;;;;;;;;;;;;;;;;5027719;28;19926;-64
2023/10/24 02:55:00;;;;;;;;;;;;;;;;;;5031581;28;19974;-63
2023/10/24 02:57:27;;;;;;;;;;;;;;;;;;5026664;28;20506;-64
2023/10/24 02:59:55;;;;;;;;;;;;;;;;;;5021642;28;19917;-65
2023/10/24 03:02:20;;;;;;;;;;;;;;;;;;5014554;28;19970;-64
2023/10/24 03:04:45;;;;;;;;;;;;;;;;;;5026139;28;19920;-64
2023/10/24 03:07:11;;;;;;;;;;;;;;;;;;5025390;28;20073;-64
2023/10/24 03:09:36;;;;;;;;;;;;;;;;;;5025576;28;19929;-64
2023/10/24 03:12:01;;;;;;;;;;;;;;;;;;5021523;28;19921;-64
2023/10/24 03:14:27;;;;;;;;;;;;;;;;;;5024703;28;19921;-65
2023/10/24 03:16:54;;;;;;;;;;;;;;;;;;5024821;28;19982;-64
2023/10/24 03:19:19;;;;;;;;;;;;;;;;;;5028013;28;20055;-64
2023/10/24 03:21:46;;;;;;;;;;;;;;;;;;5026635;28;19921;-64
2023/10/24 03:24:12;;;;;;;;;;;;;;;;;;5033847;28;19916;-64
2023/10/24 03:26:37;;;;;;;;;;;;;;;;;;5027330;28;19928;-64
2023/10/24 03:29:03;;;;;;;;;;;;;;;;;;5023097;28;19963;-63
2023/10/24 03:31:31;;;;;;;;;;;;;;;;;;5025065;28;19968;-63
2023/10/24 03:33:56;;;;;;;;;;;;;;;;;;5008910;28;19916;-63
2023/10/24 03:36:22;;;;;;;;;;;;;;;;;;5025279;28;19921;-64
2023/10/24 03:38:47;;;;;;;;;;;;;;;;;;5024865;28;20014;-64
2023/10/24 03:41:12;;;;;;;;;;;;;;;;;;5014555;28;19982;-63
2023/10/24 03:43:39;;;;;;;;;;;;;;;;;;5013935;28;19921;-63
2023/10/24 03:46:07;;;;;;;;;;;;;;;;;;5019819;28;19921;-64
2023/10/24 03:48:32;;;;;;;;;;;;;;;;;;5024815;28;20546;-63
2023/10/24 03:51:00;;;;;;;;;;;;;;;;;;5025779;28;19971;-63
2023/10/24 03:53:25;;;;;;;;;;;;;;;;;;5024514;28;20019;-64
2023/10/24 03:55:52;;;;;;;;;;;;;;;;;;5007203;28;19948;-65
2023/10/24 03:58:17;;;;;;;;;;;;;;;;;;5021779;28;20241;-63
2023/10/24 04:00:42;;;;;;;;;;;;;;;;;;5011095;28;20398;-63
2023/10/24 04:03:08;;;;;;;;;;;;;;;;;;5020825;28;19917;-63
2023/10/24 04:05:33;;;;;;;;;;;;;;;;;;5025831;28;19928;-63
2023/10/24 04:07:59;;;;;;;;;;;;;;;;;;5008894;28;20414;-63
2023/10/24 04:10:24;;;;;;;;;;;;;;;;;;5024984;28;20564;-64
2023/10/24 04:12:52;;;;;;;;;;;;;;;;;;5009404;28;19921;-65
2023/10/24 04:15:17;;;;;;;;;;;;;;;;;;5026395;28;19917;-64
2023/10/24 04:17:43;;;;;;;;;;;;;;;;;;5023733;28;19936;-66
2023/10/24 04:20:08;;;;;;;;;;;;;;;;;;5012105;28;19916;-65
2023/10/24 04:22:33;;;;;;;;;;;;;;;;;;5006876;28;20280;-65
2023/10/24 04:24:59;;;;;;;;;;;;;;;;;;5028274;28;19916;-65
2023/10/24 04:27:27;;;;;;;;;;;;;;;;;;5025021;28;19923;-65
2023/10/24 04:29:52;;;;;;;;;;;;;;;;;;5011597;28;19963;-64
2023/10/24 04:32:18;;;;;;;;;;;;;;;;;;5010394;28;20020;-64
2023/10/24 04:34:43;;;;;;;;;;;;;;;;;;5014948;28;19929;-64
2023/10/24 04:37:08;;;;;;;;;;;;;;;;;;5022719;28;19959;-64
2023/10/24 04:39:34;;;;;;;;;;;;;;;;;;5041081;28;21061;-65
2023/10/24 04:41:59;;;;;;;;;;;;;;;;;;5021747;28;19921;-65
2023/10/24 04:44:27;;;;;;;;;;;;;;;;;;5013341;28;20335;-68
2023/10/24 04:46:55;;;;;;;;;;;;;;;;;;5007181;28;19929;-66
2023/10/24 04:49:20;;;;;;;;;;;;;;;;;;5023218;28;19964;-65
2023/10/24 04:51:48;;;;;;;;;;;;;;;;;;5025572;28;19917;-66
2023/10/24 04:54:14;;;;;;;;;;;;;;;;;;5025371;28;19924;-65
2023/10/24 04:56:40;;;;;;;;;;;;;;;;;;5023769;28;19921;-64
2023/10/24 04:59:10;;;;;;;;;;;;;;;;;;5023573;28;19917;-65
2023/10/24 05:01:38;;;;;;;;;;;;;;;;;;5025037;28;19921;-63
2023/10/24 05:04:04;;;;;;;;;;;;;;;;;;5007305;28;20114;-66
2023/10/24 05:06:29;;;;;;;;;;;;;;;;;;5023832;28;19925;-66
2023/10/24 05:08:55;;;;;;;;;;;;;;;;;;5013099;28;19955;-67
2023/10/24 05:11:20;;;;;;;;;;;;;;;;;;5026096;28;19931;-66
2023/10/24 05:13:46;;;;;;;;;;;;;;;;;;5008172;28;20687;-66
2023/10/24 05:16:11;;;;;;;;;;;;;;;;;;5026319;28;19975;-65
2023/10/24 05:18:36;;;;;;;;;;;;;;;;;;5011289;28;19940;-65
2023/10/24 05:21:04;;;;;;;;;;;;;;;;;;5024762;28;19917;-66
2023/10/24 05:23:29;;;;;;;;;;;;;;;;;;5024130;28;20304;-66
2023/10/24 05:25:57;;;;;;;;;;;;;;;;;;5008545;28;19926;-66
2023/10/24 05:28:22;;;;;;;;;;;;;;;;;;5023615;28;19928;-66
2023/10/24 05:30:48;;;;;;;;;;;;;;;;;;5022247;28;19964;-66
2023/10/24 05:33:16;;;;;;;;;;;;;;;;;;5020941;28;19921;-66
2023/10/24 05:35:43;;;;;;;;;;;;;;;;;;5026010;28;19920;-66
2023/10/24 05:38:09;;;;;;;;;;;;;;;;;;5001933;28;19994;-66
2023/10/24 05:40:37;;;;;;;;;;;;;;;;;;5026245;28;20194;-66
2023/10/24 05:43:02;;;;;;;;;;;;;;;;;;5022950;28;20075;-66
2023/10/24 05:45:27;;;;;;;;;;;;;;;;;;5025273;28;20008;-66
2023/10/24 05:47:53;;;;;;;;;;;;;;;;;;5021680;28;20548;-65
2023/10/24 05:50:19;;;;;;;;;;;;;;;;;;5022215;28;19925;-66
2023/10/24 05:52:44;;;;;;;;;;;;;;;;;;5023952;28;19920;-67
2023/10/24 05:55:09;;;;;;;;;;;;;;;;;;5023885;28;20578;-66
2023/10/24 05:57:35;;;;;;;;;;;;;;;;;;5024881;28;20074;-66
2023/10/24 06:00:01;;;;;;;;;;;;;;;;;;5024604;28;19913;-65
2023/10/24 06:02:26;;;;;;;;;;;;;;;;;;5005563;28;19917;-66
2023/10/24 06:04:54;;;;;;;;;;;;;;;;;;5011380;28;19928;-67
2023/10/24 06:07:23;;;;;;;;;;;;;;;;;;5020389;28;19925;-68
2023/10/24 06:09:48;;;;;;;;;;;;;;;;;;5005235;28;20168;-67
2023/10/24 06:12:13;;;;;;;;;;;;;;;;;;5022198;28;19921;-66
2023/10/24 06:14:39;;;;;;;;;;;;;;;;;;5023362;28;20375;-65
2023/10/24 06:17:07;;;;;;;;;;;;;;;;;;5021864;28;19917;-66
2023/10/24 06:19:39;;;;;;;;;;;;;;;;;;5003606;28;19916;-66
2023/10/24 06:22:07;;;;;;;;;;;;;;;;;;5023536;28;20071;-67
2023/10/24 06:24:37;;;;;;;;;;;;;;;;;;5020201;28;20291;-67
2023/10/24 06:27:10;;;;;;;;;;;;;;;;;;5028575;28;19932;-65
2023/10/24 06:29:38;;;;;;;;;;;;;;;;;;5023958;28;20081;-65
2023/10/24 06:32:06;;;;;;;;;;;;;;;;;;5024035;28;20030;-65
2023/10/24 06:34:34;;;;;;;;;;;;;;;;;;5005721;28;19921;-66
2023/10/24 06:36:59;;;;;;;;;;;;;;;;;;5038615;28;19928;-66
2023/10/24 06:39:27;;;;;;;;;;;;;;;;;;5003754;28;21919;-66
2023/10/24 06:41:57;;;;;;;;;;;;;;;;;;5024773;28;19917;-67
2023/10/24 06:44:23;;;;;;;;;;;;;;;;;;5022776;28;20301;-66
2023/10/24 06:46:51;;;;;;;;;;;;;;;;;;5027649;28;19928;-67
2023/10/24 06:49:16;;;;;;;;;;;;;;;;;;5016264;28;20009;-67
2023/10/24 06:51:44;;;;;;;;;;;;;;;;;;5028432;28;20428;-67
2023/10/24 06:54:12;;;;;;;;;;;;;;;;;;5025599;28;19943;-65
2023/10/24 06:56:37;;;;;;;;;;;;;;;;;;5026558;28;19916;-65
2023/10/24 06:59:05;;;;;;;;;;;;;;;;;;5013253;28;20501;-65
2023/10/24 07:01:30;;;;;;;;;;;;;;;;;;5011829;28;19920;-65
2023/10/24 07:03:55;;;;;;;;;;;;;;;;;;5035439;28;19921;-67
2023/10/24 07:06:23;;;;;;;;;;;;;;;;;;5027106;28;19996;-66
2023/10/24 07:08:52;;;;;;;;;;;;;;;;;;5027542;28;19919;-67
2023/10/24 07:11:17;;;;;;;;;;;;;;;;;;5025498;28;19941;-67
2023/10/24 07:13:45;;;;;;;;;;;;;;;;;;5015713;28;20014;-66
2023/10/24 07:16:10;;;;;;;;;;;;;;;;;;5028939;28;20008;-67
2023/10/24 07:18:36;;;;;;;;;;;;;;;;;;5027090;28;20284;-66
2023/10/24 07:21:01;;;;;;;;;;;;;;;;;;5027701;28;19928;-66
2023/10/24 07:23:27;;;;;;;;;;;;;;;;;;5015949;28;20009;-66
2023/10/24 07:25:52;;;;;;;;;;;;;;;;;;5028508;28;20272;-68
2023/10/24 07:28:17;;;;;;;;;;;;;;;;;;5014054;28;19925;-66
2023/10/24 07:30:43;;;;;;;;;;;;;;;;;;5025279;28;19944;-68
2023/10/24 07:33:08;;;;;;;;;;;;;;;;;;5034221;28;19956;-68
2023/10/24 07:35:35;;;;;;;;;;;;;;;;;;5018319;28;20567;-67
2023/10/24 07:38:04;;;;;;;;;;;;;;;;;;5026467;28;19921;-68
2023/10/24 07:40:32;;;;;;;;;;;;;;;;;;5026805;28;19924;-67
2023/10/24 07:42:58;;;;;;;;;;;;;;;;;;5029008;28;19927;-67
2023/10/24 07:45:24;;;;;;;;;;;;;;;;;;5028692;28;19917;-69
2023/10/24 07:47:49;;;;;;;;;;;;;;;;;;5017977;28;19972;-68
2023/10/24 07:50:15;;;;;;;;;;;;;;;;;;5019148;28;20036;-69
2023/10/24 07:52:40;;;;;;;;;;;;;;;;;;5026721;28;19951;-69
2023/10/24 07:55:06;;;;;;;;;;;;;;;;;;5010075;28;19927;-68
2023/10/24 07:57:31;;;;;;;;;;;;;;;;;;5014826;28;20101;-67
2023/10/24 07:59:57;;;;;;;;;;;;;;;;;;5025734;28;19917;-68
2023/10/24 08:02:24;;;;;;;;;;;;;;;;;;5028310;28;19924;-69
2023/10/24 08:04:50;;;;;;;;;;;;;;;;;;5023347;28;19920;-69
2023/10/24 08:07:15;;;;;;;;;;;;;;;;;;5023393;28;19921;-69
2023/10/24 08:09:40;;;;;;;;;;;;;;;;;;5009456;28;19978;-68
2023/10/24 08:12:06;;;;;;;;;;;;;;;;;;5023818;28;20482;-69
2023/10/24 08:14:31;;;;;;;;;;;;;;;;;;5023664;28;19921;-68
2023/10/24 08:16:58;;;;;;;;;;;;;;;;;;5026954;28;19921;-70
2023/10/24 08:19:23;;;;;;;;;;;;;;;;;;5021554;28;20803;-67
2023/10/24 08:21:48;;;;;;;;;;;;;;;;;;5028354;28;19917;-68
2023/10/24 08:24:14;;;;;;;;;;;;;;;;;;5012142;28;19916;-70
2023/10/24 08:26:39;;;;;;;;;;;;;;;;;;5027236;28;19920;-67
2023/10/24 08:29:08;;;;;;;;;;;;;;;;;;5024633;28;19917;-68
2023/10/24 08:31:33;;;;;;;;;;;;;;;;;;5026187;28;19932;-67
2023/10/24 08:33:58;;;;;;;;;;;;;;;;;;5014228;28;19924;-67
2023/10/24 08:36:26;;;;;;;;;;;;;;;;;;5024750;28;19987;-68
2023/10/24 08:38:52;;;;;;;;;;;;;;;;;;5020774;28;20395;-68
2023/10/24 08:41:19;;;;;;;;;;;;;;;;;;5017122;28;20352;-68
2023/10/24 08:43:45;;;;;;;;;;;;;;;;;;5026415;28;19927;-68
2023/10/24 08:46:12;;;;;;;;;;;;;;;;;;5028495;28;19917;-67
2023/10/24 08:48:38;;;;;;;;;;;;;;;;;;5016904;28;21000;-68
2023/10/24 08:51:05;;;;;;;;;;;;;;;;;;5025987;28;19964;-66
2023/10/24 08:53:31;;;;;;;;;;;;;;;;;;5040475;28;20006;-68
2023/10/24 08:55:59;;;;;;;;;;;;;;;;;;5007817;28;19982;-67
2023/10/24 08:58:25;;;;;;;;;;;;;;;;;;5023946;28;19920;-67
2023/10/24 09:00:50;;;;;;;;;;;;;;;;;;5028686;28;20574;-67
2023/10/24 09:03:15;;;;;;;;;;;;;;;;;;5023915;28;20499;-68
2023/10/24 09:05:42;;;;;;;;;;;;;;;;;;5015637;28;19992;-68
2023/10/24 09:08:07;;;;;;;;;;;;;;;;;;5024689;28;19917;-68
2023/10/24 09:10:32;;;;;;;;;;;;;;;;;;5027662;28;19921;-67
2023/10/24 09:12:58;;;;;;;;;;;;;;;;;;5010973;28;21848;-68
2023/10/24 09:15:23;;;;;;;;;;;;;;;;;;5026965;28;20661;-67
2023/10/24 09:17:49;;;;;;;;;;;;;;;;;;5009638;28;19956;-67
2023/10/24 09:20:14;;;;;;;;;;;;;;;;;;5028434;28;19916;-67
2023/10/24 09:22:40;;;;;;;;;;;;;;;;;;5025581;28;19921;-67
2023/10/24 09:25:05;;;;;;;;;;;;;;;;;;5024841;28;21836;-67
2023/10/24 09:27:30;;;;;;;;;;;;;;;;;;5025392;28;20334;-66
2023/10/24 09:29:55;;;;;;;;;;;;;;;;;;5026407;28;19960;-67
2023/10/24 09:32:21;;;;;;;;;;;;;;;;;;5015475;28;19921;-68
2023/10/24 09:34:46;;;;;;;;;;;;;;;;;;5016082;28;20002;-67
2023/10/24 09:37:13;;;;;;;;;;;;;;;;;;5010588;28;20958;-66
2023/10/24 09:39:38;;;;;;;;;;;;;;;;;;5028517;28;19917;-68
2023/10/24 09:42:04;;;;;;;;;;;;;;;;;;5024670;28;19995;-68
2023/10/24 09:44:31;;;;;;;;;;;;;;;;;;5027685;28;20008;-66
2023/10/24 09:46:57;;;;;;;;;;;;;;;;;;5008756;28;19917;-66
2023/10/24 09:49:23;;;;;;;;;;;;;;;;;;5027535;28;20398;-66
2023/10/24 09:51:48;;;;;;;;;;;;;;;;;;5038567;28;20184;-67
2023/10/24 09:54:18;;;;;;;;;;;;;;;;;;5025284;28;20032;-67
2023/10/24 09:56:48;;;;;;;;;;;;;;;;;;5025463;28;19917;-69
2023/10/24 09:59:16;;;;;;;;;;;;;;;;;;5026057;28;19920;-66
2023/10/24 10:01:42;;;;;;;;;;;;;;;;;;5028140;28;20378;-67
2023/10/24 10:04:10;;;;;;;;;;;;;;;;;;5025518;28;20418;-69
2023/10/24 10:06:37;;;;;;;;;;;;;;;;;;5027185;28;19916;-72
2023/10/24 10:09:03;;;;;;;;;;;;;;;;;;5025240;28;19913;-69
2023/10/24 10:11:30;;;;;;;;;;;;;;;;;;5027559;28;20007;-72
2023/10/24 10:13:56;;;;;;;;;;;;;;;;;;5023214;28;21894;-68
2023/10/24 10:16:23;;;;;;;;;;;;;;;;;;5026259;28;20004;-69
2023/10/24 10:18:49;;;;;;;;;;;;;;;;;;5027926;28;20528;-67
2023/10/24 10:21:16;;;;;;;;;;;;;;;;;;5016086;28;19921;-67
2023/10/24 10:23:44;;;;;;;;;;;;;;;;;;5029258;28;19916;-68
2023/10/24 10:26:09;;;;;;;;;;;;;;;;;;5026455;28;19986;-66
2023/10/24 10:28:35;;;;;;;;;;;;;;;;;;5029626;28;19932;-67
2023/10/24 10:31:00;;;;;;;;;;;;;;;;;;5032667;28;19924;-66
2023/10/24 10:33:28;;;;;;;;;;;;;;;;;;5036020;28;19963;-67
2023/10/24 10:35:56;;;;;;;;;;;;;;;;;;5029413;28;20003;-73
2023/10/24 10:38:21;;;;;;;;;;;;;;;;;;5029763;28;19924;-69
2023/10/24 10:40:47;;;;;;;;;;;;;;;;;;5027939;28;19917;-67
2023/10/24 10:43:12;;;;;;;;;;;;;;;;;;5029240;28;19921;-66
2023/10/24 10:45:38;;;;;;;;;;;;;;;;;;5029980;28;19954;-67
2023/10/24 10:48:06;;;;;;;;;;;;;;;;;;5029272;28;19943;-67
2023/10/24 10:50:32;;;;;;;;;;;;;;;;;;5014420;28;19921;-67
2023/10/24 10:52:57;;;;;;;;;;;;;;;;;;5028629;28;20303;-67
2023/10/24 10:55:23;;;;;;;;;;;;;;;;;;5027721;28;20395;-71
2023/10/24 10:57:48;;;;;;;;;;;;;;;;;;5026388;28;19933;-68
2023/10/24 11:00:14;;;;;;;;;;;;;;;;;;5036483;28;19916;-69
2023/10/24 11:02:39;;;;;;;;;;;;;;;;;;5011244;28;22647;-70
2023/10/24 11:05:07;;;;;;;;;;;;;;;;;;5025264;28;20327;-67
2023/10/24 11:07:35;;;;;;;;;;;;;;;;;;5026004;28;20047;-67
2023/10/24 11:10:01;;;;;;;;;;;;;;;;;;5031702;28;20416;-66
2023/10/24 11:12:27;;;;;;;;;;;;;;;;;;5017461;28;20627;-67
2023/10/24 11:14:53;;;;;;;;;;;;;;;;;;5010670;28;20058;-66
2023/10/24 11:17:21;;;;;;;;;;;;;;;;;;5012833;28;19921;-66
2023/10/24 11:19:46;;;;;;;;;;;;;;;;;;5025354;28;19958;-66
2023/10/24 11:22:14;;;;;;;;;;;;;;;;;;5026981;28;19928;-67
2023/10/24 11:24:39;;;;;;;;;;;;;;;;;;5016913;28;19917;-67
2023/10/24 11:27:07;;;;;;;;;;;;;;;;;;5027686;28;19924;-67
2023/10/24 11:29:36;;;;;;;;;;;;;;;;;;5016634;28;19925;-67
2023/10/24 11:32:01;;;;;;;;;;;;;;;;;;5027934;28;20797;-68
2023/10/24 11:34:27;;;;;;;;;;;;;;;;;;5024530;28;19955;-67
2023/10/24 11:37:02;;;;;;;;;;;;;;;;;;5030207;28;19961;-66
2023/10/24 11:39:30;;;;;;;;;;;;;;;;;;5015552;28;20020;-67
2023/10/24 11:41:56;;;;;;;;;;;;;;;;;;5028618;28;19921;-67
2023/10/24 11:44:21;;;;;;;;;;;;;;;;;;5027611;28;19971;-67
2023/10/24 11:46:46;;;;;;;;;;;;;;;;;;5030304;28;20379;-66
2023/10/24 11:49:12;;;;;;;;;;;;;;;;;;5027658;28;19927;-68
2023/10/24 11:51:37;;;;;;;;;;;;;;;;;;5025864;28;20007;-68
2023/10/24 11:54:06;;;;;;;;;;;;;;;;;;5024975;28;21827;-66
2023/10/24 11:56:35;;;;;;;;;;;;;;;;;;5015862;28;19999;-65
2023/10/24 11:59:01;;;;;;;;;;;;;;;;;;5025688;28;19924;-66
2023/10/24 12:01:27;;;;;;;;;;;;;;;;;;5027735;28;20482;-66
2023/10/24 12:03:52;;;;;;;;;;;;;;;;;;5025794;28;19917;-66
2023/10/24 12:06:20;;;;;;;;;;;;;;;;;;5024685;28;19916;-65
2023/10/24 12:08:46;;;;;;;;;;;;;;;;;;5034743;28;19921;-66
2023/10/24 12:11:13;;;;;;;;;;;;;;;;;;5012292;28;20751;-66
2023/10/24 12:13:38;;;;;;;;;;;;;;;;;;5027959;28;19931;-66
2023/10/24 12:16:06;;;;;;;;;;;;;;;;;;5031089;28;20056;-65
2023/10/24 12:18:32;;;;;;;;;;;;;;;;;;5025257;28;19917;-66
2023/10/24 12:20:58;;;;;;;;;;;;;;;;;;5018219;28;19921;-66
2023/10/24 12:23:24;;;;;;;;;;;;;;;;;;5033827;28;20657;-66
2023/10/24 12:25:52;;;;;;;;;;;;;;;;;;5033401;28;19986;-67
2023/10/24 12:28:17;;;;;;;;;;;;;;;;;;5011623;28;20011;-70
2023/10/24 12:30:42;;;;;;;;;;;;;;;;;;5017774;28;19925;-67
2023/10/24 12:33:08;;;;;;;;;;;;;;;;;;5010288;28;21401;-68
2023/10/24 12:35:34;;;;;;;;;;;;;;;;;;5014854;28;19928;-67
2023/10/24 12:40:50;;;;;;;;;;;;;;;;;;5028353;28;20577;-66
2023/10/24 12:43:44;;;;;;;;;;;;;;;;;;5023353;28;19916;-64
2023/10/24 12:50:00;;;;;;;;;;;;;;;;;;5033477;28;19989;-66
2023/10/24 12:52:24;;;;;;;;;;;;;;;;;;5026187;28;19921;-65
2023/10/24 12:54:52;;;;;;;;;;;;;;;;;;5026064;28;20018;-66
2023/10/24 12:57:18;;;;;;;;;;;;;;;;;;5014727;28;20295;-65
2023/10/24 12:59:43;;;;;;;;;;;;;;;;;;5012620;28;20011;-67
2023/10/24 13:02:09;;;;;;;;;;;;;;;;;;5012350;28;20418;-66
2023/10/24 13:04:37;;;;;;;;;;;;;;;;;;5026762;28;20361;-67
2023/10/24 13:07:04;;;;;;;;;;;;;;;;;;5025745;28;20326;-71
2023/10/24 13:09:37;;;;;;;;;;;;;;;;;;5026927;28;19917;-67
2023/10/24 13:12:31;;;;;;;;;;;;;;;;;;5014316;28;20054;-66
2023/10/24 13:15:00;;;;;;;;;;;;;;;;;;5017086;28;19941;-67
2023/10/24 13:17:34;;;;;;;;;;;;;;;;;;5009440;28;19921;-65
2023/10/24 13:20:00;;;;;;;;;;;;;;;;;;5014222;28;20009;-66
2023/10/24 13:22:34;;;;;;;;;;;;;;;;;;5031697;28;19936;-68
2023/10/24 13:25:44;;;;;;;;;;;;;;;;;;5028567;28;20335;-67
2023/10/24 13:39:02;;;;;;;;;;;;;;;;;;;;;
2023/10/24 13:51:38;;;;;;;;;;;;;;;;;;4947688;28;19962;-66
2023/10/24 13:54:54;;;;;;;;;;;;;;;;;;4941994;28;19925;-66
2023/10/24 14:04:16;;;;;;;;;;;;;;;;;;5026441;28;20322;-69
2023/10/24 14:07:16;;;;;;;;;;;;;;;;;;5027265;28;19943;-68
2023/10/24 14:09:42;;;;;;;;;;;;;;;;;;5017697;28;20585;-70
2023/10/24 14:15:24;;;;;;;;;;;;;;;;;;5027155;28;20045;-69
2023/10/24 14:17:58;;;;;;;;;;;;;;;;;;5019748;28;20376;-67
2023/10/24 14:20:24;;;;;;;;;;;;;;;;;;5025652;28;20431;-69
2023/10/24 14:22:52;;;;;;;;;;;;;;;;;;5027829;28;20026;-68
2023/10/24 14:31:51;;;;;;;;;;;;;;;;;;5026179;28;19932;-70
2023/10/24 14:34:17;;;;;;;;;;;;;;;;;;5026089;28;19920;-70
2023/10/24 14:36:42;;;;;;;;;;;;;;;;;;5026890;28;20303;-69
2023/10/24 14:39:10;;;;;;;;;;;;;;;;;;5026516;28;20835;-69
2023/10/24 14:41:37;;;;;;;;;;;;;;;;;;5009790;28;19920;-69
2023/10/24 14:44:03;;;;;;;;;;;;;;;;;;5022766;28;19921;-68
2023/10/24 14:46:28;;;;;;;;;;;;;;;;;;5015687;28;19974;-67
2023/10/24 14:48:54;;;;;;;;;;;;;;;;;;5024260;28;19924;-69
2023/10/24 14:51:19;;;;;;;;;;;;;;;;;;5024601;28;19956;-70
2023/10/24 14:53:44;;;;;;;;;;;;;;;;;;5020861;28;19921;-70
2023/10/24 14:56:12;;;;;;;;;;;;;;;;;;5015288;28;20416;-68
2023/10/24 14:58:38;;;;;;;;;;;;;;;;;;5022432;28;19967;-69
2023/10/24 15:01:03;;;;;;;;;;;;;;;;;;5016388;28;20613;-70
2023/10/24 15:03:31;;;;;;;;;;;;;;;;;;5025464;28;20659;-67
2023/10/24 15:08:45;;;;;;;;;;;;;;;;;;5023700;28;19920;-70
2023/10/24 15:11:10;;;;;;;;;;;;;;;;;;5032613;28;19925;-69
2023/10/24 15:13:35;;;;;;;;;;;;;;;;;;5022586;28;19982;-69
2023/10/24 15:16:00;;;;;;;;;;;;;;;;;;5023297;28;19917;-70
2023/10/24 15:18:26;;;;;;;;;;;;;;;;;;5032303;28;20383;-68
2023/10/24 15:20:51;;;;;;;;;;;;;;;;;;5025272;28;20339;-69
2023/10/24 15:23:19;;;;;;;;;;;;;;;;;;5025474;28;19917;-69
2023/10/24 15:25:44;;;;;;;;;;;;;;;;;;5006112;28;20490;-68
2023/10/24 15:28:10;;;;;;;;;;;;;;;;;;5023470;28;21416;-68
2023/10/24 15:30:35;;;;;;;;;;;;;;;;;;5022985;28;19921;-67
2023/10/24 15:33:01;;;;;;;;;;;;;;;;;;5030907;28;20362;-67
2023/10/24 15:35:26;;;;;;;;;;;;;;;;;;5026564;28;19927;-68
2023/10/24 15:37:51;;;;;;;;;;;;;;;;;;5025793;28;20574;-68
2023/10/24 15:40:17;;;;;;;;;;;;;;;;;;5026639;28;19924;-66
2023/10/24 15:42:42;;;;;;;;;;;;;;;;;;5004214;28;19933;-68
2023/10/24 15:45:07;;;;;;;;;;;;;;;;;;5024652;28;19921;-69
2023/10/24 15:47:35;;;;;;;;;;;;;;;;;;5023128;28;19921;-67
2023/10/24 15:50:03;;;;;;;;;;;;;;;;;;5029704;28;19987;-67
2023/10/24 15:52:29;;;;;;;;;;;;;;;;;;5014151;28;20558;-67
2023/10/24 15:54:54;;;;;;;;;;;;;;;;;;5022502;28;19973;-68
2023/10/24 15:57:19;;;;;;;;;;;;;;;;;;5041346;28;21095;-66
2023/10/24 15:59:45;;;;;;;;;;;;;;;;;;5018591;28;19944;-66
2023/10/24 16:02:14;;;;;;;;;;;;;;;;;;5026081;28;19920;-67
2023/10/24 16:04:40;;;;;;;;;;;;;;;;;;5027334;28;19932;-67
2023/10/24 16:07:05;;;;;;;;;;;;;;;;;;5021208;28;19917;-65
2023/10/24 16:09:30;;;;;;;;;;;;;;;;;;5014517;28;19917;-65
2023/10/24 16:11:58;;;;;;;;;;;;;;;;;;5024074;28;20326;-65
2023/10/24 16:14:26;;;;;;;;;;;;;;;;;;5025285;28;19951;-66
2023/10/24 16:16:52;;;;;;;;;;;;;;;;;;5010713;28;19954;-66
2023/10/24 16:19:17;;;;;;;;;;;;;;;;;;5024497;28;19921;-66
2023/10/24 16:21:43;;;;;;;;;;;;;;;;;;5012836;28;20400;-66
2023/10/24 16:24:08;;;;;;;;;;;;;;;;;;5029429;28;20186;-67
2023/10/24 16:26:33;;;;;;;;;;;;;;;;;;5030296;28;19924;-68
2023/10/24 16:28:58;;;;;;;;;;;;;;;;;;5019861;28;19990;-67
2023/10/24 16:31:27;;;;;;;;;;;;;;;;;;5024717;28;19925;-67
2023/10/24 16:34:01;;;;;;;;;;;;;;;;;;5003616;28;20202;-67
2023/10/24 16:36:27;;;;;;;;;;;;;;;;;;5024005;28;19948;-67
2023/10/24 16:38:52;;;;;;;;;;;;;;;;;;5028262;28;20415;-68
2023/10/24 16:41:18;;;;;;;;;;;;;;;;;;5013629;28;19959;-67
2023/10/24 16:43:43;;;;;;;;;;;;;;;;;;5029227;28;19917;-67
2023/10/24 16:46:08;;;;;;;;;;;;;;;;;;5006158;28;20925;-67
2023/10/24 16:48:33;;;;;;;;;;;;;;;;;;5022696;28;19921;-68
2023/10/24 16:50:59;;;;;;;;;;;;;;;;;;5032210;28;19921;-67
2023/10/24 16:53:24;;;;;;;;;;;;;;;;;;5022925;28;19916;-68
2023/10/24 16:55:50;;;;;;;;;;;;;;;;;;5021007;28;19916;-68
2023/10/24 16:58:18;;;;;;;;;;;;;;;;;;5022566;28;20444;-67
2023/10/24 17:00:47;;;;;;;;;;;;;;;;;;5025137;28;19924;-68
2023/10/24 17:03:12;;;;;;;;;;;;;;;;;;5027370;28;19921;-69
2023/10/24 17:05:38;;;;;;;;;;;;;;;;;;5023123;28;19943;-68
2023/10/24 17:08:03;;;;;;;;;;;;;;;;;;5022747;28;19917;-71
2023/10/24 17:10:30;;;;;;;;;;;;;;;;;;5025265;28;20194;-68
2023/10/24 17:12:55;;;;;;;;;;;;;;;;;;5008038;28;20456;-68
2023/10/24 17:15:23;;;;;;;;;;;;;;;;;;5019554;28;20030;-72
2023/10/24 17:17:48;;;;;;;;;;;;;;;;;;5022856;28;19921;-69
2023/10/24 17:20:14;;;;;;;;;;;;;;;;;;5024697;28;19916;-68
2023/10/24 17:22:39;;;;;;;;;;;;;;;;;;5024560;28;19928;-68
2023/10/24 17:25:05;;;;;;;;;;;;;;;;;;5022531;28;19931;-68
2023/10/24 17:27:33;;;;;;;;;;;;;;;;;;5022660;28;19994;-68
2023/10/24 17:29:58;;;;;;;;;;;;;;;;;;5007972;28;20379;-68